sensor_id;sensor_type;location;lat;lon;timestamp;P1;durP1;ratioP1;P2;durP2;ratioP2
47715;SDS011;33476;50.984;3.538;2023-10-08T00:01:35;4.15;;;0.93;;
47715;SDS011;33476;50.984;3.538;2023-10-08T00:04:06;2.08;;;0.82;;
47715;SDS011;33476;50.984;3.538;2023-10-08T00:06:32;3.88;;;1.35;;
47715;SDS011;33476;50.984;3.538;2023-10-08T00:08:58;3.67;;;1.05;;
47715;SDS011;33476;50.984;3.538;2023-10-08T00:11:33;4.32;;;1.67;;
47715;SDS011;33476;50.984;3.538;2023-10-08T00:14:00;5.35;;;1.38;;
47715;SDS011;33476;50.984;3.538;2023-10-08T00:16:26;5.40;;;1.33;;
47715;SDS011;33476;50.984;3.538;2023-10-08T00:18:53;5.65;;;1.33;;
47715;SDS011;33476;50.984;3.538;2023-10-08T00:21:23;2.65;;;0.80;;
47715;SDS011;33476;50.984;3.538;2023-10-08T00:23:52;3.60;;;1.05;;
47715;SDS011;33476;50.984;3.538;2023-10-08T00:26:18;5.97;;;1.40;;
47715;SDS011;33476;50.984;3.538;2023-10-08T00:28:52;6.53;;;1.25;;
47715;SDS011;33476;50.984;3.538;2023-10-08T00:31:21;10.90;;;1.15;;
47715;SDS011;33476;50.984;3.538;2023-10-08T00:33:49;4.97;;;1.38;;
47715;SDS011;33476;50.984;3.538;2023-10-08T00:36:14;5.65;;;1.30;;
47715;SDS011;33476;50.984;3.538;2023-10-08T00:38:44;3.60;;;1.00;;
47715;SDS011;33476;50.984;3.538;2023-10-08T00:41:13;5.00;;;1.20;;
47715;SDS011;33476;50.984;3.538;2023-10-08T00:43:46;3.40;;;0.95;;
47715;SDS011;33476;50.984;3.538;2023-10-08T00:46:12;3.60;;;1.30;;
47715;SDS011;33476;50.984;3.538;2023-10-08T00:48:49;5.88;;;1.40;;
47715;SDS011;33476;50.984;3.538;2023-10-08T00:51:19;4.18;;;1.10;;
47715;SDS011;33476;50.984;3.538;2023-10-08T00:54:00;3.20;;;1.23;;
47715;SDS011;33476;50.984;3.538;2023-10-08T00:56:42;2.70;;;0.85;;
47715;SDS011;33476;50.984;3.538;2023-10-08T00:59:17;5.40;;;1.45;;
47715;SDS011;33476;50.984;3.538;2023-10-08T01:01:46;3.50;;;1.30;;
47715;SDS011;33476;50.984;3.538;2023-10-08T01:04:22;3.67;;;0.90;;
47715;SDS011;33476;50.984;3.538;2023-10-08T01:06:51;5.55;;;1.80;;
47715;SDS011;33476;50.984;3.538;2023-10-08T01:09:24;4.15;;;1.25;;
47715;SDS011;33476;50.984;3.538;2023-10-08T01:14:41;5.80;;;1.00;;
47715;SDS011;33476;50.984;3.538;2023-10-08T01:17:12;6.18;;;1.38;;
47715;SDS011;33476;50.984;3.538;2023-10-08T01:19:39;3.05;;;1.10;;
47715;SDS011;33476;50.984;3.538;2023-10-08T01:22:06;3.53;;;1.30;;
47715;SDS011;33476;50.984;3.538;2023-10-08T01:24:32;5.53;;;1.20;;
47715;SDS011;33476;50.984;3.538;2023-10-08T01:27:00;5.75;;;1.48;;
47715;SDS011;33476;50.984;3.538;2023-10-08T01:29:29;3.22;;;1.35;;
47715;SDS011;33476;50.984;3.538;2023-10-08T01:31:54;4.45;;;1.73;;
47715;SDS011;33476;50.984;3.538;2023-10-08T01:34:20;4.63;;;1.30;;
47715;SDS011;33476;50.984;3.538;2023-10-08T01:36:52;7.75;;;1.48;;
47715;SDS011;33476;50.984;3.538;2023-10-08T01:39:17;2.33;;;1.13;;
47715;SDS011;33476;50.984;3.538;2023-10-08T01:41:45;5.47;;;1.52;;
47715;SDS011;33476;50.984;3.538;2023-10-08T01:44:16;5.18;;;1.42;;
47715;SDS011;33476;50.984;3.538;2023-10-08T01:46:42;6.10;;;1.48;;
47715;SDS011;33476;50.984;3.538;2023-10-08T01:49:08;5.63;;;1.40;;
47715;SDS011;33476;50.984;3.538;2023-10-08T01:51:41;6.80;;;2.15;;
47715;SDS011;33476;50.984;3.538;2023-10-08T01:54:12;3.25;;;1.15;;
47715;SDS011;33476;50.984;3.538;2023-10-08T01:56:43;7.22;;;1.30;;
47715;SDS011;33476;50.984;3.538;2023-10-08T02:01:39;7.72;;;1.70;;
47715;SDS011;33476;50.984;3.538;2023-10-08T02:04:06;6.47;;;1.60;;
47715;SDS011;33476;50.984;3.538;2023-10-08T02:06:41;4.30;;;1.50;;
47715;SDS011;33476;50.984;3.538;2023-10-08T02:09:07;5.55;;;1.70;;
47715;SDS011;33476;50.984;3.538;2023-10-08T02:11:48;4.93;;;1.75;;
47715;SDS011;33476;50.984;3.538;2023-10-08T02:14:18;5.88;;;1.80;;
47715;SDS011;33476;50.984;3.538;2023-10-08T02:16:45;5.75;;;1.77;;
47715;SDS011;33476;50.984;3.538;2023-10-08T02:19:14;4.78;;;1.75;;
47715;SDS011;33476;50.984;3.538;2023-10-08T02:21:43;5.38;;;1.50;;
47715;SDS011;33476;50.984;3.538;2023-10-08T02:24:11;3.35;;;1.40;;
47715;SDS011;33476;50.984;3.538;2023-10-08T02:26:38;5.10;;;1.40;;
47715;SDS011;33476;50.984;3.538;2023-10-08T02:29:04;7.07;;;1.52;;
47715;SDS011;33476;50.984;3.538;2023-10-08T02:31:36;7.32;;;1.92;;
47715;SDS011;33476;50.984;3.538;2023-10-08T02:34:03;8.77;;;1.55;;
47715;SDS011;33476;50.984;3.538;2023-10-08T02:36:29;6.68;;;1.90;;
47715;SDS011;33476;50.984;3.538;2023-10-08T02:38:55;5.63;;;1.50;;
47715;SDS011;33476;50.984;3.538;2023-10-08T02:41:21;5.78;;;1.35;;
47715;SDS011;33476;50.984;3.538;2023-10-08T02:43:49;5.95;;;1.30;;
47715;SDS011;33476;50.984;3.538;2023-10-08T02:46:15;4.15;;;1.42;;
47715;SDS011;33476;50.984;3.538;2023-10-08T02:48:40;3.95;;;1.40;;
47715;SDS011;33476;50.984;3.538;2023-10-08T02:51:06;6.35;;;1.58;;
47715;SDS011;33476;50.984;3.538;2023-10-08T02:53:38;4.63;;;1.60;;
47715;SDS011;33476;50.984;3.538;2023-10-08T02:56:07;5.93;;;1.70;;
47715;SDS011;33476;50.984;3.538;2023-10-08T02:58:38;4.50;;;1.52;;
47715;SDS011;33476;50.984;3.538;2023-10-08T03:01:09;4.43;;;1.52;;
47715;SDS011;33476;50.984;3.538;2023-10-08T03:03:41;5.45;;;1.75;;
47715;SDS011;33476;50.984;3.538;2023-10-08T03:06:11;5.63;;;1.67;;
47715;SDS011;33476;50.984;3.538;2023-10-08T03:08:39;3.28;;;1.08;;
47715;SDS011;33476;50.984;3.538;2023-10-08T03:11:08;5.72;;;1.70;;
47715;SDS011;33476;50.984;3.538;2023-10-08T03:13:41;3.65;;;1.70;;
47715;SDS011;33476;50.984;3.538;2023-10-08T03:16:11;4.40;;;1.63;;
47715;SDS011;33476;50.984;3.538;2023-10-08T03:18:38;6.57;;;2.08;;
47715;SDS011;33476;50.984;3.538;2023-10-08T03:21:15;5.07;;;1.45;;
47715;SDS011;33476;50.984;3.538;2023-10-08T03:23:48;8.20;;;1.58;;
47715;SDS011;33476;50.984;3.538;2023-10-08T03:26:15;6.57;;;1.67;;
47715;SDS011;33476;50.984;3.538;2023-10-08T03:28:56;7.80;;;1.90;;
47715;SDS011;33476;50.984;3.538;2023-10-08T03:31:22;5.43;;;1.80;;
47715;SDS011;33476;50.984;3.538;2023-10-08T03:34:08;7.60;;;2.10;;
47715;SDS011;33476;50.984;3.538;2023-10-08T03:36:37;3.38;;;1.60;;
47715;SDS011;33476;50.984;3.538;2023-10-08T03:39:09;3.28;;;1.30;;
47715;SDS011;33476;50.984;3.538;2023-10-08T03:41:44;5.50;;;1.77;;
47715;SDS011;33476;50.984;3.538;2023-10-08T03:44:28;3.85;;;1.13;;
47715;SDS011;33476;50.984;3.538;2023-10-08T03:46:54;3.58;;;1.45;;
47715;SDS011;33476;50.984;3.538;2023-10-08T03:49:22;4.57;;;1.38;;
47715;SDS011;33476;50.984;3.538;2023-10-08T03:51:47;6.25;;;1.45;;
47715;SDS011;33476;50.984;3.538;2023-10-08T03:54:17;2.50;;;1.38;;
47715;SDS011;33476;50.984;3.538;2023-10-08T03:56:55;5.97;;;1.38;;
47715;SDS011;33476;50.984;3.538;2023-10-08T03:59:20;3.92;;;1.38;;
47715;SDS011;33476;50.984;3.538;2023-10-08T04:02:05;3.05;;;1.30;;
47715;SDS011;33476;50.984;3.538;2023-10-08T04:04:40;7.05;;;1.80;;
47715;SDS011;33476;50.984;3.538;2023-10-08T04:07:17;4.55;;;1.70;;
47715;SDS011;33476;50.984;3.538;2023-10-08T04:09:59;6.57;;;1.52;;
47715;SDS011;33476;50.984;3.538;2023-10-08T04:12:34;4.63;;;1.60;;
47715;SDS011;33476;50.984;3.538;2023-10-08T04:15:02;7.13;;;1.33;;
47715;SDS011;33476;50.984;3.538;2023-10-08T04:17:33;5.68;;;1.20;;
47715;SDS011;33476;50.984;3.538;2023-10-08T04:20:12;3.65;;;1.35;;
47715;SDS011;33476;50.984;3.538;2023-10-08T04:22:57;3.30;;;1.50;;
47715;SDS011;33476;50.984;3.538;2023-10-08T04:25:25;4.43;;;1.35;;
47715;SDS011;33476;50.984;3.538;2023-10-08T04:27:53;5.45;;;1.77;;
47715;SDS011;33476;50.984;3.538;2023-10-08T04:30:19;9.52;;;2.33;;
47715;SDS011;33476;50.984;3.538;2023-10-08T04:32:46;3.83;;;1.70;;
47715;SDS011;33476;50.984;3.538;2023-10-08T04:35:11;4.43;;;2.10;;
47715;SDS011;33476;50.984;3.538;2023-10-08T04:37:40;5.55;;;1.95;;
47715;SDS011;33476;50.984;3.538;2023-10-08T04:40:06;5.30;;;2.28;;
47715;SDS011;33476;50.984;3.538;2023-10-08T04:42:41;6.10;;;2.08;;
47715;SDS011;33476;50.984;3.538;2023-10-08T04:45:10;6.90;;;2.85;;
47715;SDS011;33476;50.984;3.538;2023-10-08T04:47:39;7.95;;;2.47;;
47715;SDS011;33476;50.984;3.538;2023-10-08T04:50:07;9.00;;;2.60;;
47715;SDS011;33476;50.984;3.538;2023-10-08T04:52:42;8.30;;;2.17;;
47715;SDS011;33476;50.984;3.538;2023-10-08T04:55:23;7.05;;;2.53;;
47715;SDS011;33476;50.984;3.538;2023-10-08T05:00:19;7.43;;;2.00;;
47715;SDS011;33476;50.984;3.538;2023-10-08T05:03:04;6.57;;;1.90;;
47715;SDS011;33476;50.984;3.538;2023-10-08T05:05:38;8.18;;;2.38;;
47715;SDS011;33476;50.984;3.538;2023-10-08T05:08:19;4.05;;;2.15;;
47715;SDS011;33476;50.984;3.538;2023-10-08T05:10:58;6.97;;;2.15;;
47715;SDS011;33476;50.984;3.538;2023-10-08T05:13:39;6.40;;;2.05;;
47715;SDS011;33476;50.984;3.538;2023-10-08T05:16:20;5.15;;;2.17;;
47715;SDS011;33476;50.984;3.538;2023-10-08T05:19:02;5.80;;;2.00;;
47715;SDS011;33476;50.984;3.538;2023-10-08T05:21:59;6.97;;;1.90;;
47715;SDS011;33476;50.984;3.538;2023-10-08T05:24:42;9.25;;;1.85;;
47715;SDS011;33476;50.984;3.538;2023-10-08T05:27:29;3.30;;;1.65;;
47715;SDS011;33476;50.984;3.538;2023-10-08T05:30:25;4.93;;;2.17;;
47715;SDS011;33476;50.984;3.538;2023-10-08T05:33:18;5.40;;;2.75;;
47715;SDS011;33476;50.984;3.538;2023-10-08T05:35:50;4.80;;;1.98;;
47715;SDS011;33476;50.984;3.538;2023-10-08T05:38:27;6.07;;;2.10;;
47715;SDS011;33476;50.984;3.538;2023-10-08T05:40:59;4.30;;;2.03;;
47715;SDS011;33476;50.984;3.538;2023-10-08T05:43:25;9.70;;;2.50;;
47715;SDS011;33476;50.984;3.538;2023-10-08T05:48:52;4.72;;;2.35;;
47715;SDS011;33476;50.984;3.538;2023-10-08T05:51:34;4.55;;;1.80;;
47715;SDS011;33476;50.984;3.538;2023-10-08T05:54:19;4.45;;;2.10;;
47715;SDS011;33476;50.984;3.538;2023-10-08T05:56:52;4.90;;;2.08;;
47715;SDS011;33476;50.984;3.538;2023-10-08T05:59:40;6.40;;;2.10;;
47715;SDS011;33476;50.984;3.538;2023-10-08T06:02:23;5.82;;;1.92;;
47715;SDS011;33476;50.984;3.538;2023-10-08T06:05:03;8.95;;;2.58;;
47715;SDS011;33476;50.984;3.538;2023-10-08T06:10:15;6.40;;;2.13;;
47715;SDS011;33476;50.984;3.538;2023-10-08T06:12:57;8.27;;;2.65;;
47715;SDS011;33476;50.984;3.538;2023-10-08T06:18:16;8.95;;;2.30;;
47715;SDS011;33476;50.984;3.538;2023-10-08T06:20:43;9.73;;;2.42;;
47715;SDS011;33476;50.984;3.538;2023-10-08T06:23:13;7.57;;;2.10;;
47715;SDS011;33476;50.984;3.538;2023-10-08T06:25:43;8.20;;;2.25;;
47715;SDS011;33476;50.984;3.538;2023-10-08T06:28:16;7.15;;;2.10;;
47715;SDS011;33476;50.984;3.538;2023-10-08T06:30:48;9.65;;;2.55;;
47715;SDS011;33476;50.984;3.538;2023-10-08T06:33:15;7.30;;;2.05;;
47715;SDS011;33476;50.984;3.538;2023-10-08T06:35:44;8.60;;;2.47;;
47715;SDS011;33476;50.984;3.538;2023-10-08T06:38:28;6.85;;;2.63;;
47715;SDS011;33476;50.984;3.538;2023-10-08T06:40:58;6.25;;;1.73;;
47715;SDS011;33476;50.984;3.538;2023-10-08T06:43:33;6.45;;;2.42;;
47715;SDS011;33476;50.984;3.538;2023-10-08T06:46:01;8.85;;;2.40;;
47715;SDS011;33476;50.984;3.538;2023-10-08T06:48:28;6.43;;;2.67;;
47715;SDS011;33476;50.984;3.538;2023-10-08T06:50:54;7.03;;;2.67;;
47715;SDS011;33476;50.984;3.538;2023-10-08T06:53:23;7.32;;;2.38;;
47715;SDS011;33476;50.984;3.538;2023-10-08T06:55:49;9.48;;;2.42;;
47715;SDS011;33476;50.984;3.538;2023-10-08T06:58:22;8.45;;;2.45;;
47715;SDS011;33476;50.984;3.538;2023-10-08T07:00:48;7.75;;;2.47;;
47715;SDS011;33476;50.984;3.538;2023-10-08T07:03:14;7.00;;;2.80;;
47715;SDS011;33476;50.984;3.538;2023-10-08T07:05:42;6.70;;;2.50;;
47715;SDS011;33476;50.984;3.538;2023-10-08T07:08:19;10.48;;;2.80;;
47715;SDS011;33476;50.984;3.538;2023-10-08T07:10:51;6.07;;;2.50;;
47715;SDS011;33476;50.984;3.538;2023-10-08T07:13:18;8.93;;;2.83;;
47715;SDS011;33476;50.984;3.538;2023-10-08T07:15:50;4.82;;;2.13;;
47715;SDS011;33476;50.984;3.538;2023-10-08T07:18:16;7.55;;;2.75;;
47715;SDS011;33476;50.984;3.538;2023-10-08T07:20:52;6.53;;;3.25;;
47715;SDS011;33476;50.984;3.538;2023-10-08T07:23:19;9.88;;;3.13;;
47715;SDS011;33476;50.984;3.538;2023-10-08T07:25:55;5.90;;;2.58;;
47715;SDS011;33476;50.984;3.538;2023-10-08T07:28:24;9.80;;;3.17;;
47715;SDS011;33476;50.984;3.538;2023-10-08T07:30:51;6.25;;;2.42;;
47715;SDS011;33476;50.984;3.538;2023-10-08T07:33:17;9.52;;;2.60;;
47715;SDS011;33476;50.984;3.538;2023-10-08T07:35:46;8.75;;;2.90;;
47715;SDS011;33476;50.984;3.538;2023-10-08T07:38:22;5.75;;;2.40;;
47715;SDS011;33476;50.984;3.538;2023-10-08T07:40:52;7.25;;;2.92;;
47715;SDS011;33476;50.984;3.538;2023-10-08T07:43:20;8.23;;;2.83;;
47715;SDS011;33476;50.984;3.538;2023-10-08T07:45:46;8.65;;;2.72;;
47715;SDS011;33476;50.984;3.538;2023-10-08T07:48:11;7.38;;;3.05;;
47715;SDS011;33476;50.984;3.538;2023-10-08T07:50:42;6.18;;;2.53;;
47715;SDS011;33476;50.984;3.538;2023-10-08T07:53:10;6.88;;;2.58;;
47715;SDS011;33476;50.984;3.538;2023-10-08T07:55:43;5.45;;;2.50;;
47715;SDS011;33476;50.984;3.538;2023-10-08T07:58:10;6.47;;;2.70;;
47715;SDS011;33476;50.984;3.538;2023-10-08T08:00:36;6.80;;;3.20;;
47715;SDS011;33476;50.984;3.538;2023-10-08T08:03:04;8.65;;;3.35;;
47715;SDS011;33476;50.984;3.538;2023-10-08T08:05:30;8.10;;;3.13;;
47715;SDS011;33476;50.984;3.538;2023-10-08T08:07:55;9.43;;;3.55;;
47715;SDS011;33476;50.984;3.538;2023-10-08T08:10:23;10.27;;;3.67;;
47715;SDS011;33476;50.984;3.538;2023-10-08T08:12:49;5.63;;;2.97;;
47715;SDS011;33476;50.984;3.538;2023-10-08T08:15:16;7.80;;;3.17;;
47715;SDS011;33476;50.984;3.538;2023-10-08T08:17:43;5.53;;;3.15;;
47715;SDS011;33476;50.984;3.538;2023-10-08T08:20:09;5.95;;;3.25;;
47715;SDS011;33476;50.984;3.538;2023-10-08T08:22:44;9.57;;;3.28;;
47715;SDS011;33476;50.984;3.538;2023-10-08T08:25:30;12.80;;;3.67;;
47715;SDS011;33476;50.984;3.538;2023-10-08T08:28:10;9.50;;;3.45;;
47715;SDS011;33476;50.984;3.538;2023-10-08T08:30:42;8.13;;;2.97;;
47715;SDS011;33476;50.984;3.538;2023-10-08T08:33:17;11.52;;;2.92;;
47715;SDS011;33476;50.984;3.538;2023-10-08T08:35:56;7.28;;;3.55;;
47715;SDS011;33476;50.984;3.538;2023-10-08T08:38:23;9.25;;;3.10;;
47715;SDS011;33476;50.984;3.538;2023-10-08T08:40:49;11.25;;;3.60;;
47715;SDS011;33476;50.984;3.538;2023-10-08T08:43:14;8.25;;;3.38;;
47715;SDS011;33476;50.984;3.538;2023-10-08T08:45:41;11.65;;;3.15;;
47715;SDS011;33476;50.984;3.538;2023-10-08T08:48:08;11.48;;;3.17;;
47715;SDS011;33476;50.984;3.538;2023-10-08T08:50:35;8.88;;;3.30;;
47715;SDS011;33476;50.984;3.538;2023-10-08T08:53:03;7.75;;;3.10;;
47715;SDS011;33476;50.984;3.538;2023-10-08T08:55:29;10.15;;;3.40;;
47715;SDS011;33476;50.984;3.538;2023-10-08T08:57:57;5.85;;;2.83;;
47715;SDS011;33476;50.984;3.538;2023-10-08T09:00:24;10.73;;;3.60;;
47715;SDS011;33476;50.984;3.538;2023-10-08T09:02:54;6.45;;;3.10;;
47715;SDS011;33476;50.984;3.538;2023-10-08T09:05:21;7.53;;;2.55;;
47715;SDS011;33476;50.984;3.538;2023-10-08T09:08:00;7.78;;;3.00;;
47715;SDS011;33476;50.984;3.538;2023-10-08T09:10:35;13.25;;;3.70;;
47715;SDS011;33476;50.984;3.538;2023-10-08T09:13:06;6.40;;;3.30;;
47715;SDS011;33476;50.984;3.538;2023-10-08T09:15:34;10.55;;;2.95;;
47715;SDS011;33476;50.984;3.538;2023-10-08T09:18:02;11.57;;;4.75;;
47715;SDS011;33476;50.984;3.538;2023-10-08T09:20:31;8.13;;;3.72;;
47715;SDS011;33476;50.984;3.538;2023-10-08T09:23:08;13.45;;;4.20;;
47715;SDS011;33476;50.984;3.538;2023-10-08T09:25:45;9.95;;;3.90;;
47715;SDS011;33476;50.984;3.538;2023-10-08T09:28:27;10.10;;;3.47;;
47715;SDS011;33476;50.984;3.538;2023-10-08T09:30:54;9.55;;;3.70;;
47715;SDS011;33476;50.984;3.538;2023-10-08T09:33:23;8.13;;;3.67;;
47715;SDS011;33476;50.984;3.538;2023-10-08T09:35:49;9.30;;;2.85;;
47715;SDS011;33476;50.984;3.538;2023-10-08T09:38:16;14.73;;;4.20;;
47715;SDS011;33476;50.984;3.538;2023-10-08T09:40:47;8.20;;;3.15;;
47715;SDS011;33476;50.984;3.538;2023-10-08T09:43:13;11.10;;;3.60;;
47715;SDS011;33476;50.984;3.538;2023-10-08T09:45:47;8.57;;;3.42;;
47715;SDS011;33476;50.984;3.538;2023-10-08T09:48:16;11.45;;;2.90;;
47715;SDS011;33476;50.984;3.538;2023-10-08T09:50:45;14.13;;;3.58;;
47715;SDS011;33476;50.984;3.538;2023-10-08T09:53:12;15.13;;;3.95;;
47715;SDS011;33476;50.984;3.538;2023-10-08T09:55:56;12.32;;;3.72;;
47715;SDS011;33476;50.984;3.538;2023-10-08T09:58:23;8.55;;;3.22;;
47715;SDS011;33476;50.984;3.538;2023-10-08T10:00:50;10.07;;;3.63;;
47715;SDS011;33476;50.984;3.538;2023-10-08T10:03:17;9.57;;;3.08;;
47715;SDS011;33476;50.984;3.538;2023-10-08T10:05:46;14.55;;;4.07;;
47715;SDS011;33476;50.984;3.538;2023-10-08T10:08:14;11.82;;;3.25;;
47715;SDS011;33476;50.984;3.538;2023-10-08T10:10:40;12.07;;;4.10;;
47715;SDS011;33476;50.984;3.538;2023-10-08T10:13:11;11.70;;;3.78;;
47715;SDS011;33476;50.984;3.538;2023-10-08T10:15:37;8.05;;;3.88;;
47715;SDS011;33476;50.984;3.538;2023-10-08T10:18:16;9.23;;;3.40;;
47715;SDS011;33476;50.984;3.538;2023-10-08T10:21:00;9.73;;;3.40;;
47715;SDS011;33476;50.984;3.538;2023-10-08T10:23:45;13.50;;;3.45;;
47715;SDS011;33476;50.984;3.538;2023-10-08T10:26:28;10.77;;;3.47;;
47715;SDS011;33476;50.984;3.538;2023-10-08T10:31:39;9.85;;;3.47;;
47715;SDS011;33476;50.984;3.538;2023-10-08T10:34:15;8.38;;;3.38;;
47715;SDS011;33476;50.984;3.538;2023-10-08T10:37:03;11.73;;;3.95;;
47715;SDS011;33476;50.984;3.538;2023-10-08T10:39:35;10.00;;;3.58;;
47715;SDS011;33476;50.984;3.538;2023-10-08T10:42:05;12.00;;;3.42;;
47715;SDS011;33476;50.984;3.538;2023-10-08T10:44:45;8.38;;;3.58;;
47715;SDS011;33476;50.984;3.538;2023-10-08T10:47:14;12.10;;;3.85;;
47715;SDS011;33476;50.984;3.538;2023-10-08T10:49:40;6.00;;;3.08;;
47715;SDS011;33476;50.984;3.538;2023-10-08T10:52:26;13.93;;;3.80;;
47715;SDS011;33476;50.984;3.538;2023-10-08T10:55:10;7.75;;;3.08;;
47715;SDS011;33476;50.984;3.538;2023-10-08T10:57:55;8.27;;;3.28;;
47715;SDS011;33476;50.984;3.538;2023-10-08T11:00:25;9.90;;;3.80;;
47715;SDS011;33476;50.984;3.538;2023-10-08T11:02:55;7.28;;;2.97;;
47715;SDS011;33476;50.984;3.538;2023-10-08T11:05:25;10.88;;;3.42;;
47715;SDS011;33476;50.984;3.538;2023-10-08T11:08:02;11.82;;;3.67;;
47715;SDS011;33476;50.984;3.538;2023-10-08T11:10:32;8.82;;;2.75;;
47715;SDS011;33476;50.984;3.538;2023-10-08T11:12:58;8.77;;;3.08;;
47715;SDS011;33476;50.984;3.538;2023-10-08T11:15:29;10.40;;;3.60;;
47715;SDS011;33476;50.984;3.538;2023-10-08T11:18:12;13.20;;;3.35;;
47715;SDS011;33476;50.984;3.538;2023-10-08T11:20:40;8.23;;;2.95;;
47715;SDS011;33476;50.984;3.538;2023-10-08T11:23:09;8.48;;;3.40;;
47715;SDS011;33476;50.984;3.538;2023-10-08T11:25:54;6.53;;;2.60;;
47715;SDS011;33476;50.984;3.538;2023-10-08T11:28:25;10.32;;;2.80;;
47715;SDS011;33476;50.984;3.538;2023-10-08T11:30:52;7.00;;;3.38;;
47715;SDS011;33476;50.984;3.538;2023-10-08T11:33:18;9.23;;;3.33;;
47715;SDS011;33476;50.984;3.538;2023-10-08T11:35:56;6.60;;;2.92;;
47715;SDS011;33476;50.984;3.538;2023-10-08T11:38:25;9.77;;;3.70;;
47715;SDS011;33476;50.984;3.538;2023-10-08T11:40:52;6.60;;;2.88;;
47715;SDS011;33476;50.984;3.538;2023-10-08T11:43:22;8.13;;;2.67;;
47715;SDS011;33476;50.984;3.538;2023-10-08T11:45:48;9.18;;;3.10;;
47715;SDS011;33476;50.984;3.538;2023-10-08T11:48:14;8.18;;;3.47;;
47715;SDS011;33476;50.984;3.538;2023-10-08T11:50:46;10.57;;;3.65;;
47715;SDS011;33476;50.984;3.538;2023-10-08T11:53:12;5.93;;;2.75;;
47715;SDS011;33476;50.984;3.538;2023-10-08T11:55:38;8.95;;;3.42;;
47715;SDS011;33476;50.984;3.538;2023-10-08T11:58:07;11.32;;;3.05;;
47715;SDS011;33476;50.984;3.538;2023-10-08T12:00:37;9.97;;;3.60;;
47715;SDS011;33476;50.984;3.538;2023-10-08T12:03:09;6.93;;;3.10;;
47715;SDS011;33476;50.984;3.538;2023-10-08T12:05:36;8.65;;;3.83;;
47715;SDS011;33476;50.984;3.538;2023-10-08T12:08:04;7.60;;;2.97;;
47715;SDS011;33476;50.984;3.538;2023-10-08T12:10:33;12.77;;;3.40;;
47715;SDS011;33476;50.984;3.538;2023-10-08T12:12:59;7.15;;;3.10;;
47715;SDS011;33476;50.984;3.538;2023-10-08T12:15:25;10.80;;;3.38;;
47715;SDS011;33476;50.984;3.538;2023-10-08T12:18:03;10.05;;;3.00;;
47715;SDS011;33476;50.984;3.538;2023-10-08T12:20:48;10.18;;;3.00;;
47715;SDS011;33476;50.984;3.538;2023-10-08T12:23:13;6.97;;;3.13;;
47715;SDS011;33476;50.984;3.538;2023-10-08T12:25:53;10.55;;;3.30;;
47715;SDS011;33476;50.984;3.538;2023-10-08T12:28:24;8.52;;;3.05;;
47715;SDS011;33476;50.984;3.538;2023-10-08T12:30:50;9.07;;;2.50;;
47715;SDS011;33476;50.984;3.538;2023-10-08T12:33:19;6.85;;;3.05;;
47715;SDS011;33476;50.984;3.538;2023-10-08T12:35:45;7.95;;;3.20;;
47715;SDS011;33476;50.984;3.538;2023-10-08T12:38:12;8.77;;;2.72;;
47715;SDS011;33476;50.984;3.538;2023-10-08T12:40:39;11.85;;;3.25;;
47715;SDS011;33476;50.984;3.538;2023-10-08T12:43:24;9.00;;;3.28;;
47715;SDS011;33476;50.984;3.538;2023-10-08T12:45:53;13.95;;;2.75;;
47715;SDS011;33476;50.984;3.538;2023-10-08T12:48:24;9.30;;;2.65;;
47715;SDS011;33476;50.984;3.538;2023-10-08T12:50:54;9.63;;;2.80;;
47715;SDS011;33476;50.984;3.538;2023-10-08T12:53:24;6.13;;;2.50;;
47715;SDS011;33476;50.984;3.538;2023-10-08T12:55:58;6.57;;;3.13;;
47715;SDS011;33476;50.984;3.538;2023-10-08T12:58:31;7.97;;;2.85;;
47715;SDS011;33476;50.984;3.538;2023-10-08T13:01:12;9.80;;;3.03;;
47715;SDS011;33476;50.984;3.538;2023-10-08T13:03:39;6.80;;;2.97;;
47715;SDS011;33476;50.984;3.538;2023-10-08T13:06:12;7.50;;;3.30;;
47715;SDS011;33476;50.984;3.538;2023-10-08T13:08:53;8.38;;;3.00;;
47715;SDS011;33476;50.984;3.538;2023-10-08T13:11:19;9.88;;;2.92;;
47715;SDS011;33476;50.984;3.538;2023-10-08T13:13:48;7.22;;;2.72;;
47715;SDS011;33476;50.984;3.538;2023-10-08T13:16:15;5.97;;;2.58;;
47715;SDS011;33476;50.984;3.538;2023-10-08T13:18:41;8.98;;;3.38;;
47715;SDS011;33476;50.984;3.538;2023-10-08T13:21:08;8.00;;;2.92;;
47715;SDS011;33476;50.984;3.538;2023-10-08T13:23:34;8.55;;;2.60;;
47715;SDS011;33476;50.984;3.538;2023-10-08T13:26:00;8.27;;;3.00;;
47715;SDS011;33476;50.984;3.538;2023-10-08T13:28:29;7.10;;;2.90;;
47715;SDS011;33476;50.984;3.538;2023-10-08T13:30:55;10.07;;;3.25;;
47715;SDS011;33476;50.984;3.538;2023-10-08T13:33:21;8.73;;;2.70;;
47715;SDS011;33476;50.984;3.538;2023-10-08T13:35:47;11.68;;;2.90;;
47715;SDS011;33476;50.984;3.538;2023-10-08T13:38:15;9.50;;;2.80;;
47715;SDS011;33476;50.984;3.538;2023-10-08T13:40:42;5.13;;;2.55;;
47715;SDS011;33476;50.984;3.538;2023-10-08T13:43:27;7.47;;;2.55;;
47715;SDS011;33476;50.984;3.538;2023-10-08T13:45:58;7.03;;;2.80;;
47715;SDS011;33476;50.984;3.538;2023-10-08T13:48:38;10.10;;;3.00;;
47715;SDS011;33476;50.984;3.538;2023-10-08T13:51:05;7.93;;;2.83;;
47715;SDS011;33476;50.984;3.538;2023-10-08T13:53:36;13.60;;;2.63;;
47715;SDS011;33476;50.984;3.538;2023-10-08T13:56:02;7.32;;;2.83;;
47715;SDS011;33476;50.984;3.538;2023-10-08T13:58:32;11.48;;;2.92;;
47715;SDS011;33476;50.984;3.538;2023-10-08T14:01:00;7.47;;;2.28;;
47715;SDS011;33476;50.984;3.538;2023-10-08T14:03:28;6.57;;;2.97;;
47715;SDS011;33476;50.984;3.538;2023-10-08T14:05:56;10.25;;;2.58;;
47715;SDS011;33476;50.984;3.538;2023-10-08T14:08:26;5.60;;;2.20;;
47715;SDS011;33476;50.984;3.538;2023-10-08T14:10:54;7.45;;;2.53;;
47715;SDS011;33476;50.984;3.538;2023-10-08T14:13:21;9.32;;;3.03;;
47715;SDS011;33476;50.984;3.538;2023-10-08T14:15:49;7.22;;;2.72;;
47715;SDS011;33476;50.984;3.538;2023-10-08T14:18:20;7.00;;;2.40;;
47715;SDS011;33476;50.984;3.538;2023-10-08T14:20:51;7.63;;;2.40;;
47715;SDS011;33476;50.984;3.538;2023-10-08T14:23:19;9.25;;;2.92;;
47715;SDS011;33476;50.984;3.538;2023-10-08T14:25:49;8.85;;;2.97;;
47715;SDS011;33476;50.984;3.538;2023-10-08T14:28:16;10.02;;;2.63;;
47715;SDS011;33476;50.984;3.538;2023-10-08T14:31:05;3.95;;;1.90;;
47715;SDS011;33476;50.984;3.538;2023-10-08T14:33:31;5.60;;;1.80;;
47715;SDS011;33476;50.984;3.538;2023-10-08T14:36:06;6.13;;;2.15;;
47715;SDS011;33476;50.984;3.538;2023-10-08T14:38:50;5.22;;;1.90;;
47715;SDS011;33476;50.984;3.538;2023-10-08T14:41:34;6.00;;;1.95;;
47715;SDS011;33476;50.984;3.538;2023-10-08T14:44:18;8.93;;;2.20;;
47715;SDS011;33476;50.984;3.538;2023-10-08T14:46:44;6.28;;;2.05;;
47715;SDS011;33476;50.984;3.538;2023-10-08T14:49:09;5.53;;;2.22;;
47715;SDS011;33476;50.984;3.538;2023-10-08T14:51:36;5.13;;;1.90;;
47715;SDS011;33476;50.984;3.538;2023-10-08T14:54:03;5.82;;;2.00;;
47715;SDS011;33476;50.984;3.538;2023-10-08T14:56:31;6.40;;;1.95;;
47715;SDS011;33476;50.984;3.538;2023-10-08T14:58:57;4.18;;;2.10;;
47715;SDS011;33476;50.984;3.538;2023-10-08T15:01:23;5.07;;;1.92;;
47715;SDS011;33476;50.984;3.538;2023-10-08T15:03:50;4.80;;;2.05;;
47715;SDS011;33476;50.984;3.538;2023-10-08T15:06:17;5.50;;;2.00;;
47715;SDS011;33476;50.984;3.538;2023-10-08T15:08:44;4.88;;;1.75;;
47715;SDS011;33476;50.984;3.538;2023-10-08T15:11:09;5.50;;;2.05;;
47715;SDS011;33476;50.984;3.538;2023-10-08T15:13:35;5.30;;;1.90;;
47715;SDS011;33476;50.984;3.538;2023-10-08T15:16:04;6.30;;;2.22;;
47715;SDS011;33476;50.984;3.538;2023-10-08T15:18:30;6.75;;;2.00;;
47715;SDS011;33476;50.984;3.538;2023-10-08T15:20:57;4.97;;;1.98;;
47715;SDS011;33476;50.984;3.538;2023-10-08T15:23:23;3.72;;;1.70;;
47715;SDS011;33476;50.984;3.538;2023-10-08T15:25:52;5.07;;;1.77;;
47715;SDS011;33476;50.984;3.538;2023-10-08T15:28:18;4.82;;;1.83;;